<?xml version="1.0" encoding="UTF-8" standalone="no" ?>
<gpx xmlns="http://www.topografix.com/GPX/1/1" xmlns:xsi="http://www.w3.org/2001/XMLSchema-instance" xsi:schemaLocation="http://www.topografix.com/GPX/1/1 http://www.topografix.com/GPX/1/1/gpx.xsd" version="1.1" creator="VisuGPX - https://www.visugpx.com">
  <metadata>
    <name>TRACE MLH 2 3 1 VLD 1</name>
    <desc><![CDATA[Chemin de Marcilly à Villadin]]></desc>
  </metadata>
  <trk>
    <name><![CDATA[jeu. 25/avr./2013 14:42:13]]></name>
    <trkseg>
      <trkpt lat="48.3083" lon="3.64541">
        <ele>234</ele>
        <time>2013-04-25T12:42:13Z</time>
      </trkpt>
      <trkpt lat="48.30828" lon="3.64563">
        <ele>221</ele>
        <time>2013-04-25T12:42:14Z</time>
      </trkpt>
      <trkpt lat="48.3084" lon="3.64584">
        <ele>194</ele>
        <time>2013-04-25T12:42:15Z</time>
      </trkpt>
      <trkpt lat="48.3084" lon="3.64584">
        <ele>194</ele>
        <time>2013-04-25T12:42:15Z</time>
      </trkpt>
      <trkpt lat="48.3084" lon="3.64543">
        <ele>174</ele>
        <time>2013-04-25T12:42:28Z</time>
      </trkpt>
      <trkpt lat="48.30837" lon="3.6449">
        <ele>172</ele>
        <time>2013-04-25T12:42:31Z</time>
      </trkpt>
      <trkpt lat="48.30835" lon="3.64449">
        <ele>172</ele>
        <time>2013-04-25T12:42:33Z</time>
      </trkpt>
      <trkpt lat="48.30834" lon="3.64406">
        <ele>172</ele>
        <time>2013-04-25T12:42:35Z</time>
      </trkpt>
      <trkpt lat="48.30833" lon="3.64361">
        <ele>171</ele>
        <time>2013-04-25T12:42:37Z</time>
      </trkpt>
      <trkpt lat="48.30831" lon="3.64317">
        <ele>170</ele>
        <time>2013-04-25T12:42:39Z</time>
      </trkpt>
      <trkpt lat="48.3083" lon="3.6427">
        <ele>170</ele>
        <time>2013-04-25T12:42:41Z</time>
      </trkpt>
      <trkpt lat="48.30829" lon="3.64226">
        <ele>169</ele>
        <time>2013-04-25T12:42:43Z</time>
      </trkpt>
      <trkpt lat="48.30828" lon="3.6418">
        <ele>168</ele>
        <time>2013-04-25T12:42:45Z</time>
      </trkpt>
      <trkpt lat="48.30826" lon="3.64134">
        <ele>168</ele>
        <time>2013-04-25T12:42:47Z</time>
      </trkpt>
      <trkpt lat="48.30825" lon="3.64086">
        <ele>167</ele>
        <time>2013-04-25T12:42:49Z</time>
      </trkpt>
      <trkpt lat="48.30823" lon="3.64039">
        <ele>167</ele>
        <time>2013-04-25T12:42:51Z</time>
      </trkpt>
      <trkpt lat="48.30822" lon="3.6399">
        <ele>166</ele>
        <time>2013-04-25T12:42:53Z</time>
      </trkpt>
      <trkpt lat="48.30821" lon="3.63944">
        <ele>166</ele>
        <time>2013-04-25T12:42:55Z</time>
      </trkpt>
      <trkpt lat="48.3082" lon="3.63897">
        <ele>166</ele>
        <time>2013-04-25T12:42:57Z</time>
      </trkpt>
      <trkpt lat="48.30818" lon="3.63854">
        <ele>166</ele>
        <time>2013-04-25T12:42:59Z</time>
      </trkpt>
      <trkpt lat="48.30817" lon="3.6381">
        <ele>166</ele>
        <time>2013-04-25T12:43:01Z</time>
      </trkpt>
      <trkpt lat="48.30816" lon="3.63769">
        <ele>165</ele>
        <time>2013-04-25T12:43:03Z</time>
      </trkpt>
      <trkpt lat="48.30815" lon="3.63727">
        <ele>165</ele>
        <time>2013-04-25T12:43:05Z</time>
      </trkpt>
      <trkpt lat="48.30813" lon="3.63688">
        <ele>165</ele>
        <time>2013-04-25T12:43:07Z</time>
      </trkpt>
      <trkpt lat="48.30812" lon="3.63649">
        <ele>166</ele>
        <time>2013-04-25T12:43:09Z</time>
      </trkpt>
      <trkpt lat="48.30811" lon="3.63604">
        <ele>165</ele>
        <time>2013-04-25T12:43:12Z</time>
      </trkpt>
      <trkpt lat="48.30836" lon="3.63589">
        <ele>167</ele>
        <time>2013-04-25T12:43:22Z</time>
      </trkpt>
      <trkpt lat="48.30863" lon="3.63602">
        <ele>168</ele>
        <time>2013-04-25T12:43:25Z</time>
      </trkpt>
      <trkpt lat="48.30896" lon="3.63617">
        <ele>169</ele>
        <time>2013-04-25T12:43:28Z</time>
      </trkpt>
      <trkpt lat="48.3092" lon="3.63624">
        <ele>169</ele>
        <time>2013-04-25T12:43:30Z</time>
      </trkpt>
      <trkpt lat="48.30946" lon="3.63626">
        <ele>170</ele>
        <time>2013-04-25T12:43:32Z</time>
      </trkpt>
      <trkpt lat="48.30975" lon="3.63624">
        <ele>172</ele>
        <time>2013-04-25T12:43:34Z</time>
      </trkpt>
      <trkpt lat="48.31004" lon="3.63618">
        <ele>173</ele>
        <time>2013-04-25T12:43:36Z</time>
      </trkpt>
      <trkpt lat="48.31035" lon="3.63611">
        <ele>175</ele>
        <time>2013-04-25T12:43:38Z</time>
      </trkpt>
      <trkpt lat="48.31066" lon="3.63604">
        <ele>176</ele>
        <time>2013-04-25T12:43:40Z</time>
      </trkpt>
      <trkpt lat="48.31097" lon="3.63596">
        <ele>177</ele>
        <time>2013-04-25T12:43:42Z</time>
      </trkpt>
      <trkpt lat="48.31129" lon="3.6359">
        <ele>178</ele>
        <time>2013-04-25T12:43:44Z</time>
      </trkpt>
      <trkpt lat="48.31161" lon="3.63583">
        <ele>179</ele>
        <time>2013-04-25T12:43:46Z</time>
      </trkpt>
      <trkpt lat="48.31194" lon="3.63575">
        <ele>179</ele>
        <time>2013-04-25T12:43:48Z</time>
      </trkpt>
      <trkpt lat="48.31226" lon="3.63567">
        <ele>181</ele>
        <time>2013-04-25T12:43:50Z</time>
      </trkpt>
      <trkpt lat="48.31259" lon="3.63561">
        <ele>184</ele>
        <time>2013-04-25T12:43:52Z</time>
      </trkpt>
      <trkpt lat="48.31292" lon="3.63557">
        <ele>184</ele>
        <time>2013-04-25T12:43:54Z</time>
      </trkpt>
      <trkpt lat="48.31325" lon="3.63556">
        <ele>186</ele>
        <time>2013-04-25T12:43:56Z</time>
      </trkpt>
      <trkpt lat="48.31358" lon="3.63554">
        <ele>187</ele>
        <time>2013-04-25T12:43:58Z</time>
      </trkpt>
      <trkpt lat="48.31392" lon="3.63551">
        <ele>190</ele>
        <time>2013-04-25T12:44:00Z</time>
      </trkpt>
      <trkpt lat="48.31425" lon="3.63551">
        <ele>191</ele>
        <time>2013-04-25T12:44:02Z</time>
      </trkpt>
      <trkpt lat="48.31458" lon="3.6355">
        <ele>193</ele>
        <time>2013-04-25T12:44:04Z</time>
      </trkpt>
      <trkpt lat="48.31492" lon="3.63548">
        <ele>194</ele>
        <time>2013-04-25T12:44:06Z</time>
      </trkpt>
      <trkpt lat="48.31525" lon="3.63547">
        <ele>194</ele>
        <time>2013-04-25T12:44:08Z</time>
      </trkpt>
      <trkpt lat="48.3156" lon="3.63545">
        <ele>194</ele>
        <time>2013-04-25T12:44:10Z</time>
      </trkpt>
      <trkpt lat="48.31593" lon="3.63543">
        <ele>194</ele>
        <time>2013-04-25T12:44:12Z</time>
      </trkpt>
      <trkpt lat="48.31629" lon="3.63541">
        <ele>195</ele>
        <time>2013-04-25T12:44:14Z</time>
      </trkpt>
      <trkpt lat="48.31663" lon="3.63538">
        <ele>196</ele>
        <time>2013-04-25T12:44:16Z</time>
      </trkpt>
      <trkpt lat="48.31699" lon="3.63532">
        <ele>198</ele>
        <time>2013-04-25T12:44:18Z</time>
      </trkpt>
      <trkpt lat="48.31735" lon="3.63524">
        <ele>199</ele>
        <time>2013-04-25T12:44:20Z</time>
      </trkpt>
      <trkpt lat="48.31771" lon="3.63512">
        <ele>200</ele>
        <time>2013-04-25T12:44:22Z</time>
      </trkpt>
      <trkpt lat="48.31808" lon="3.63498">
        <ele>203</ele>
        <time>2013-04-25T12:44:24Z</time>
      </trkpt>
      <trkpt lat="48.31844" lon="3.63482">
        <ele>204</ele>
        <time>2013-04-25T12:44:26Z</time>
      </trkpt>
      <trkpt lat="48.3188" lon="3.63466">
        <ele>206</ele>
        <time>2013-04-25T12:44:28Z</time>
      </trkpt>
      <trkpt lat="48.31915" lon="3.63451">
        <ele>207</ele>
        <time>2013-04-25T12:44:30Z</time>
      </trkpt>
      <trkpt lat="48.3195" lon="3.63438">
        <ele>208</ele>
        <time>2013-04-25T12:44:32Z</time>
      </trkpt>
      <trkpt lat="48.31982" lon="3.63427">
        <ele>208</ele>
        <time>2013-04-25T12:44:34Z</time>
      </trkpt>
      <trkpt lat="48.32014" lon="3.63416">
        <ele>208</ele>
        <time>2013-04-25T12:44:36Z</time>
      </trkpt>
      <trkpt lat="48.32045" lon="3.63405">
        <ele>208</ele>
        <time>2013-04-25T12:44:38Z</time>
      </trkpt>
      <trkpt lat="48.32078" lon="3.63394">
        <ele>206</ele>
        <time>2013-04-25T12:44:40Z</time>
      </trkpt>
      <trkpt lat="48.32111" lon="3.63381">
        <ele>206</ele>
        <time>2013-04-25T12:44:42Z</time>
      </trkpt>
      <trkpt lat="48.32147" lon="3.63369">
        <ele>205</ele>
        <time>2013-04-25T12:44:44Z</time>
      </trkpt>
      <trkpt lat="48.32185" lon="3.63355">
        <ele>204</ele>
        <time>2013-04-25T12:44:46Z</time>
      </trkpt>
      <trkpt lat="48.32223" lon="3.63343">
        <ele>203</ele>
        <time>2013-04-25T12:44:48Z</time>
      </trkpt>
      <trkpt lat="48.32263" lon="3.63338">
        <ele>200</ele>
        <time>2013-04-25T12:44:50Z</time>
      </trkpt>
      <trkpt lat="48.32305" lon="3.63333">
        <ele>200</ele>
        <time>2013-04-25T12:44:52Z</time>
      </trkpt>
      <trkpt lat="48.32347" lon="3.63328">
        <ele>198</ele>
        <time>2013-04-25T12:44:54Z</time>
      </trkpt>
      <trkpt lat="48.32389" lon="3.63324">
        <ele>196</ele>
        <time>2013-04-25T12:44:56Z</time>
      </trkpt>
      <trkpt lat="48.3243" lon="3.63326">
        <ele>192</ele>
        <time>2013-04-25T12:44:58Z</time>
      </trkpt>
      <trkpt lat="48.32471" lon="3.63337">
        <ele>187</ele>
        <time>2013-04-25T12:45:00Z</time>
      </trkpt>
      <trkpt lat="48.32509" lon="3.63357">
        <ele>185</ele>
        <time>2013-04-25T12:45:02Z</time>
      </trkpt>
      <trkpt lat="48.32547" lon="3.63388">
        <ele>187</ele>
        <time>2013-04-25T12:45:04Z</time>
      </trkpt>
      <trkpt lat="48.32579" lon="3.63425">
        <ele>187</ele>
        <time>2013-04-25T12:45:06Z</time>
      </trkpt>
      <trkpt lat="48.32608" lon="3.6347">
        <ele>187</ele>
        <time>2013-04-25T12:45:08Z</time>
      </trkpt>
      <trkpt lat="48.32634" lon="3.63518">
        <ele>181</ele>
        <time>2013-04-25T12:45:10Z</time>
      </trkpt>
      <trkpt lat="48.32661" lon="3.63567">
        <ele>179</ele>
        <time>2013-04-25T12:45:12Z</time>
      </trkpt>
      <trkpt lat="48.32688" lon="3.63612">
        <ele>178</ele>
        <time>2013-04-25T12:45:14Z</time>
      </trkpt>
      <trkpt lat="48.32722" lon="3.63647">
        <ele>175</ele>
        <time>2013-04-25T12:45:16Z</time>
      </trkpt>
      <trkpt lat="48.3276" lon="3.63671">
        <ele>174</ele>
        <time>2013-04-25T12:45:18Z</time>
      </trkpt>
      <trkpt lat="48.328" lon="3.63696">
        <ele>173</ele>
        <time>2013-04-25T12:45:20Z</time>
      </trkpt>
      <trkpt lat="48.32839" lon="3.63721">
        <ele>173</ele>
        <time>2013-04-25T12:45:22Z</time>
      </trkpt>
      <trkpt lat="48.32878" lon="3.63746">
        <ele>171</ele>
        <time>2013-04-25T12:45:24Z</time>
      </trkpt>
      <trkpt lat="48.32916" lon="3.63771">
        <ele>170</ele>
        <time>2013-04-25T12:45:26Z</time>
      </trkpt>
      <trkpt lat="48.32954" lon="3.63796">
        <ele>167</ele>
        <time>2013-04-25T12:45:28Z</time>
      </trkpt>
      <trkpt lat="48.32993" lon="3.63821">
        <ele>166</ele>
        <time>2013-04-25T12:45:30Z</time>
      </trkpt>
      <trkpt lat="48.33032" lon="3.63842">
        <ele>164</ele>
        <time>2013-04-25T12:45:32Z</time>
      </trkpt>
      <trkpt lat="48.33073" lon="3.63853">
        <ele>162</ele>
        <time>2013-04-25T12:45:34Z</time>
      </trkpt>
      <trkpt lat="48.33114" lon="3.63852">
        <ele>161</ele>
        <time>2013-04-25T12:45:36Z</time>
      </trkpt>
      <trkpt lat="48.33147" lon="3.63842">
        <ele>159</ele>
        <time>2013-04-25T12:45:38Z</time>
      </trkpt>
      <trkpt lat="48.33174" lon="3.63828">
        <ele>159</ele>
        <time>2013-04-25T12:45:41Z</time>
      </trkpt>
      <trkpt lat="48.33151" lon="3.63836">
        <ele>161</ele>
        <time>2013-04-25T12:46:13Z</time>
      </trkpt>
      <trkpt lat="48.33123" lon="3.63843">
        <ele>161</ele>
        <time>2013-04-25T12:46:16Z</time>
      </trkpt>
      <trkpt lat="48.331" lon="3.63846">
        <ele>162</ele>
        <time>2013-04-25T12:46:18Z</time>
      </trkpt>
      <trkpt lat="48.33075" lon="3.63847">
        <ele>162</ele>
        <time>2013-04-25T12:46:20Z</time>
      </trkpt>
      <trkpt lat="48.33043" lon="3.63839">
        <ele>162</ele>
        <time>2013-04-25T12:46:23Z</time>
      </trkpt>
      <trkpt lat="48.33012" lon="3.63825">
        <ele>163</ele>
        <time>2013-04-25T12:46:26Z</time>
      </trkpt>
      <trkpt lat="48.32988" lon="3.6381">
        <ele>163</ele>
        <time>2013-04-25T12:46:28Z</time>
      </trkpt>
      <trkpt lat="48.32963" lon="3.63794">
        <ele>164</ele>
        <time>2013-04-25T12:46:30Z</time>
      </trkpt>
      <trkpt lat="48.32936" lon="3.63778">
        <ele>165</ele>
        <time>2013-04-25T12:46:32Z</time>
      </trkpt>
      <trkpt lat="48.32908" lon="3.63759">
        <ele>166</ele>
        <time>2013-04-25T12:46:34Z</time>
      </trkpt>
      <trkpt lat="48.32878" lon="3.6374">
        <ele>167</ele>
        <time>2013-04-25T12:46:36Z</time>
      </trkpt>
      <trkpt lat="48.3285" lon="3.63719">
        <ele>167</ele>
        <time>2013-04-25T12:46:38Z</time>
      </trkpt>
      <trkpt lat="48.32819" lon="3.637">
        <ele>168</ele>
        <time>2013-04-25T12:46:40Z</time>
      </trkpt>
      <trkpt lat="48.32788" lon="3.63679">
        <ele>168</ele>
        <time>2013-04-25T12:46:42Z</time>
      </trkpt>
      <trkpt lat="48.32756" lon="3.6366">
        <ele>169</ele>
        <time>2013-04-25T12:46:44Z</time>
      </trkpt>
      <trkpt lat="48.3271" lon="3.63627">
        <ele>169</ele>
        <time>2013-04-25T12:46:47Z</time>
      </trkpt>
      <trkpt lat="48.32683" lon="3.63594">
        <ele>170</ele>
        <time>2013-04-25T12:46:49Z</time>
      </trkpt>
      <trkpt lat="48.32659" lon="3.63557">
        <ele>171</ele>
        <time>2013-04-25T12:46:51Z</time>
      </trkpt>
      <trkpt lat="48.32636" lon="3.63514">
        <ele>173</ele>
        <time>2013-04-25T12:46:53Z</time>
      </trkpt>
      <trkpt lat="48.32613" lon="3.63473">
        <ele>174</ele>
        <time>2013-04-25T12:46:55Z</time>
      </trkpt>
      <trkpt lat="48.32586" lon="3.63432">
        <ele>175</ele>
        <time>2013-04-25T12:46:57Z</time>
      </trkpt>
      <trkpt lat="48.3256" lon="3.63394">
        <ele>175</ele>
        <time>2013-04-25T12:46:59Z</time>
      </trkpt>
      <trkpt lat="48.32527" lon="3.63365">
        <ele>176</ele>
        <time>2013-04-25T12:47:01Z</time>
      </trkpt>
      <trkpt lat="48.32495" lon="3.63342">
        <ele>178</ele>
        <time>2013-04-25T12:47:03Z</time>
      </trkpt>
      <trkpt lat="48.32462" lon="3.63326">
        <ele>178</ele>
        <time>2013-04-25T12:47:05Z</time>
      </trkpt>
      <trkpt lat="48.32426" lon="3.63318">
        <ele>179</ele>
        <time>2013-04-25T12:47:07Z</time>
      </trkpt>
      <trkpt lat="48.32391" lon="3.63319">
        <ele>180</ele>
        <time>2013-04-25T12:47:09Z</time>
      </trkpt>
      <trkpt lat="48.32357" lon="3.63323">
        <ele>183</ele>
        <time>2013-04-25T12:47:11Z</time>
      </trkpt>
      <trkpt lat="48.32322" lon="3.63325">
        <ele>184</ele>
        <time>2013-04-25T12:47:13Z</time>
      </trkpt>
      <trkpt lat="48.32287" lon="3.63328">
        <ele>186</ele>
        <time>2013-04-25T12:47:15Z</time>
      </trkpt>
      <trkpt lat="48.32251" lon="3.63332">
        <ele>189</ele>
        <time>2013-04-25T12:47:17Z</time>
      </trkpt>
      <trkpt lat="48.32215" lon="3.63339">
        <ele>190</ele>
        <time>2013-04-25T12:47:19Z</time>
      </trkpt>
      <trkpt lat="48.32178" lon="3.6335">
        <ele>191</ele>
        <time>2013-04-25T12:47:21Z</time>
      </trkpt>
      <trkpt lat="48.32144" lon="3.63363">
        <ele>193</ele>
        <time>2013-04-25T12:47:23Z</time>
      </trkpt>
      <trkpt lat="48.32109" lon="3.63375">
        <ele>195</ele>
        <time>2013-04-25T12:47:25Z</time>
      </trkpt>
      <trkpt lat="48.32077" lon="3.63385">
        <ele>196</ele>
        <time>2013-04-25T12:47:27Z</time>
      </trkpt>
      <trkpt lat="48.32047" lon="3.63395">
        <ele>198</ele>
        <time>2013-04-25T12:47:29Z</time>
      </trkpt>
      <trkpt lat="48.32025" lon="3.63403">
        <ele>199</ele>
        <time>2013-04-25T12:47:31Z</time>
      </trkpt>
      <trkpt lat="48.32003" lon="3.63413">
        <ele>200</ele>
        <time>2013-04-25T12:47:34Z</time>
      </trkpt>
      <trkpt lat="48.32015" lon="3.63442">
        <ele>205</ele>
        <time>2013-04-25T12:47:43Z</time>
      </trkpt>
      <trkpt lat="48.32037" lon="3.63456">
        <ele>207</ele>
        <time>2013-04-25T12:47:48Z</time>
      </trkpt>
      <trkpt lat="48.32058" lon="3.63471">
        <ele>207</ele>
        <time>2013-04-25T12:47:53Z</time>
      </trkpt>
      <trkpt lat="48.32079" lon="3.63488">
        <ele>207</ele>
        <time>2013-04-25T12:47:58Z</time>
      </trkpt>
      <trkpt lat="48.32099" lon="3.63509">
        <ele>206</ele>
        <time>2013-04-25T12:48:03Z</time>
      </trkpt>
      <trkpt lat="48.32116" lon="3.63531">
        <ele>206</ele>
        <time>2013-04-25T12:48:09Z</time>
      </trkpt>
      <trkpt lat="48.32129" lon="3.63559">
        <ele>205</ele>
        <time>2013-04-25T12:48:14Z</time>
      </trkpt>
      <trkpt lat="48.32141" lon="3.63594">
        <ele>204</ele>
        <time>2013-04-25T12:48:20Z</time>
      </trkpt>
      <trkpt lat="48.32148" lon="3.63628">
        <ele>203</ele>
        <time>2013-04-25T12:48:25Z</time>
      </trkpt>
      <trkpt lat="48.32154" lon="3.63666">
        <ele>201</ele>
        <time>2013-04-25T12:48:31Z</time>
      </trkpt>
      <trkpt lat="48.32163" lon="3.63701">
        <ele>199</ele>
        <time>2013-04-25T12:48:38Z</time>
      </trkpt>
      <trkpt lat="48.3217" lon="3.63738">
        <ele>197</ele>
        <time>2013-04-25T12:48:45Z</time>
      </trkpt>
      <trkpt lat="48.32187" lon="3.63766">
        <ele>193</ele>
        <time>2013-04-25T12:48:51Z</time>
      </trkpt>
      <trkpt lat="48.32208" lon="3.63784">
        <ele>192</ele>
        <time>2013-04-25T12:48:56Z</time>
      </trkpt>
      <trkpt lat="48.32233" lon="3.63801">
        <ele>191</ele>
        <time>2013-04-25T12:49:01Z</time>
      </trkpt>
      <trkpt lat="48.32255" lon="3.63813">
        <ele>190</ele>
        <time>2013-04-25T12:49:05Z</time>
      </trkpt>
      <trkpt lat="48.32277" lon="3.63821">
        <ele>189</ele>
        <time>2013-04-25T12:49:09Z</time>
      </trkpt>
      <trkpt lat="48.32305" lon="3.63825">
        <ele>189</ele>
        <time>2013-04-25T12:49:14Z</time>
      </trkpt>
      <trkpt lat="48.32327" lon="3.63834">
        <ele>189</ele>
        <time>2013-04-25T12:49:19Z</time>
      </trkpt>
      <trkpt lat="48.32347" lon="3.63853">
        <ele>189</ele>
        <time>2013-04-25T12:49:24Z</time>
      </trkpt>
      <trkpt lat="48.32367" lon="3.63874">
        <ele>188</ele>
        <time>2013-04-25T12:49:29Z</time>
      </trkpt>
      <trkpt lat="48.32389" lon="3.63896">
        <ele>188</ele>
        <time>2013-04-25T12:49:34Z</time>
      </trkpt>
      <trkpt lat="48.32406" lon="3.63927">
        <ele>187</ele>
        <time>2013-04-25T12:49:39Z</time>
      </trkpt>
      <trkpt lat="48.3242" lon="3.63954">
        <ele>187</ele>
        <time>2013-04-25T12:49:43Z</time>
      </trkpt>
      <trkpt lat="48.32434" lon="3.63983">
        <ele>186</ele>
        <time>2013-04-25T12:49:47Z</time>
      </trkpt>
      <trkpt lat="48.3245" lon="3.64015">
        <ele>186</ele>
        <time>2013-04-25T12:49:52Z</time>
      </trkpt>
      <trkpt lat="48.32462" lon="3.64047">
        <ele>183</ele>
        <time>2013-04-25T12:49:56Z</time>
      </trkpt>
      <trkpt lat="48.32474" lon="3.64078">
        <ele>182</ele>
        <time>2013-04-25T12:50:00Z</time>
      </trkpt>
      <trkpt lat="48.32485" lon="3.64108">
        <ele>181</ele>
        <time>2013-04-25T12:50:04Z</time>
      </trkpt>
      <trkpt lat="48.32495" lon="3.6414">
        <ele>180</ele>
        <time>2013-04-25T12:50:08Z</time>
      </trkpt>
      <trkpt lat="48.32506" lon="3.64174">
        <ele>180</ele>
        <time>2013-04-25T12:50:12Z</time>
      </trkpt>
      <trkpt lat="48.32519" lon="3.64207">
        <ele>180</ele>
        <time>2013-04-25T12:50:16Z</time>
      </trkpt>
      <trkpt lat="48.32536" lon="3.6424">
        <ele>180</ele>
        <time>2013-04-25T12:50:20Z</time>
      </trkpt>
      <trkpt lat="48.32553" lon="3.64273">
        <ele>180</ele>
        <time>2013-04-25T12:50:24Z</time>
      </trkpt>
      <trkpt lat="48.32566" lon="3.643">
        <ele>181</ele>
        <time>2013-04-25T12:50:27Z</time>
      </trkpt>
      <trkpt lat="48.32582" lon="3.64333">
        <ele>182</ele>
        <time>2013-04-25T12:50:31Z</time>
      </trkpt>
      <trkpt lat="48.32596" lon="3.64367">
        <ele>183</ele>
        <time>2013-04-25T12:50:35Z</time>
      </trkpt>
      <trkpt lat="48.32611" lon="3.64402">
        <ele>183</ele>
        <time>2013-04-25T12:50:39Z</time>
      </trkpt>
      <trkpt lat="48.32628" lon="3.64432">
        <ele>183</ele>
        <time>2013-04-25T12:50:43Z</time>
      </trkpt>
      <trkpt lat="48.32647" lon="3.64457">
        <ele>182</ele>
        <time>2013-04-25T12:50:47Z</time>
      </trkpt>
      <trkpt lat="48.32666" lon="3.64484">
        <ele>181</ele>
        <time>2013-04-25T12:50:51Z</time>
      </trkpt>
      <trkpt lat="48.32684" lon="3.6451">
        <ele>181</ele>
        <time>2013-04-25T12:50:55Z</time>
      </trkpt>
      <trkpt lat="48.32702" lon="3.64537">
        <ele>182</ele>
        <time>2013-04-25T12:50:59Z</time>
      </trkpt>
      <trkpt lat="48.32718" lon="3.64562">
        <ele>183</ele>
        <time>2013-04-25T12:51:04Z</time>
      </trkpt>
      <trkpt lat="48.32704" lon="3.64592">
        <ele>186</ele>
        <time>2013-04-25T12:51:14Z</time>
      </trkpt>
      <trkpt lat="48.32681" lon="3.64606">
        <ele>185</ele>
        <time>2013-04-25T12:51:21Z</time>
      </trkpt>
      <trkpt lat="48.32684" lon="3.64644">
        <ele>185</ele>
        <time>2013-04-25T12:51:29Z</time>
      </trkpt>
      <trkpt lat="48.32695" lon="3.64676">
        <ele>187</ele>
        <time>2013-04-25T12:51:34Z</time>
      </trkpt>
      <trkpt lat="48.32708" lon="3.6471">
        <ele>187</ele>
        <time>2013-04-25T12:51:40Z</time>
      </trkpt>
      <trkpt lat="48.32717" lon="3.64744">
        <ele>185</ele>
        <time>2013-04-25T12:51:49Z</time>
      </trkpt>
      <trkpt lat="48.32703" lon="3.64774">
        <ele>187</ele>
        <time>2013-04-25T12:51:56Z</time>
      </trkpt>
      <trkpt lat="48.32689" lon="3.64804">
        <ele>188</ele>
        <time>2013-04-25T12:52:02Z</time>
      </trkpt>
      <trkpt lat="48.32675" lon="3.64832">
        <ele>189</ele>
        <time>2013-04-25T12:52:08Z</time>
      </trkpt>
      <trkpt lat="48.32662" lon="3.64864">
        <ele>191</ele>
        <time>2013-04-25T12:52:14Z</time>
      </trkpt>
      <trkpt lat="48.32649" lon="3.64893">
        <ele>192</ele>
        <time>2013-04-25T12:52:20Z</time>
      </trkpt>
      <trkpt lat="48.32635" lon="3.64925">
        <ele>192</ele>
        <time>2013-04-25T12:52:26Z</time>
      </trkpt>
      <trkpt lat="48.32622" lon="3.64954">
        <ele>190</ele>
        <time>2013-04-25T12:52:31Z</time>
      </trkpt>
      <trkpt lat="48.32608" lon="3.64984">
        <ele>186</ele>
        <time>2013-04-25T12:52:36Z</time>
      </trkpt>
      <trkpt lat="48.32593" lon="3.65017">
        <ele>184</ele>
        <time>2013-04-25T12:52:41Z</time>
      </trkpt>
      <trkpt lat="48.32578" lon="3.65047">
        <ele>181</ele>
        <time>2013-04-25T12:52:46Z</time>
      </trkpt>
      <trkpt lat="48.32562" lon="3.6508">
        <ele>180</ele>
        <time>2013-04-25T12:52:51Z</time>
      </trkpt>
      <trkpt lat="48.32549" lon="3.6511">
        <ele>179</ele>
        <time>2013-04-25T12:52:55Z</time>
      </trkpt>
      <trkpt lat="48.32534" lon="3.65142">
        <ele>178</ele>
        <time>2013-04-25T12:52:59Z</time>
      </trkpt>
      <trkpt lat="48.3252" lon="3.65172">
        <ele>176</ele>
        <time>2013-04-25T12:53:03Z</time>
      </trkpt>
      <trkpt lat="48.32506" lon="3.65202">
        <ele>175</ele>
        <time>2013-04-25T12:53:07Z</time>
      </trkpt>
      <trkpt lat="48.32493" lon="3.65231">
        <ele>174</ele>
        <time>2013-04-25T12:53:11Z</time>
      </trkpt>
      <trkpt lat="48.32479" lon="3.65263">
        <ele>174</ele>
        <time>2013-04-25T12:53:16Z</time>
      </trkpt>
      <trkpt lat="48.32464" lon="3.65293">
        <ele>172</ele>
        <time>2013-04-25T12:53:21Z</time>
      </trkpt>
      <trkpt lat="48.32449" lon="3.65325">
        <ele>170</ele>
        <time>2013-04-25T12:53:26Z</time>
      </trkpt>
      <trkpt lat="48.32434" lon="3.65357">
        <ele>170</ele>
        <time>2013-04-25T12:53:31Z</time>
      </trkpt>
      <trkpt lat="48.32418" lon="3.65391">
        <ele>173</ele>
        <time>2013-04-25T12:53:36Z</time>
      </trkpt>
      <trkpt lat="48.32403" lon="3.65425">
        <ele>175</ele>
        <time>2013-04-25T12:53:41Z</time>
      </trkpt>
      <trkpt lat="48.32386" lon="3.65458">
        <ele>178</ele>
        <time>2013-04-25T12:53:46Z</time>
      </trkpt>
      <trkpt lat="48.32372" lon="3.65486">
        <ele>180</ele>
        <time>2013-04-25T12:53:50Z</time>
      </trkpt>
      <trkpt lat="48.32357" lon="3.65522">
        <ele>182</ele>
        <time>2013-04-25T12:53:55Z</time>
      </trkpt>
      <trkpt lat="48.32343" lon="3.65551">
        <ele>183</ele>
        <time>2013-04-25T12:53:59Z</time>
      </trkpt>
      <trkpt lat="48.32328" lon="3.65584">
        <ele>184</ele>
        <time>2013-04-25T12:54:04Z</time>
      </trkpt>
      <trkpt lat="48.32313" lon="3.65612">
        <ele>184</ele>
        <time>2013-04-25T12:54:09Z</time>
      </trkpt>
      <trkpt lat="48.32298" lon="3.6564">
        <ele>185</ele>
        <time>2013-04-25T12:54:14Z</time>
      </trkpt>
      <trkpt lat="48.32283" lon="3.65669">
        <ele>184</ele>
        <time>2013-04-25T12:54:20Z</time>
      </trkpt>
      <trkpt lat="48.31579" lon="3.66751">
        <ele>244</ele>
        <time>2013-04-25T13:03:08Z</time>
      </trkpt>
      <trkpt lat="48.31578" lon="3.66754">
        <ele>241</ele>
        <time>2013-04-25T13:03:10Z</time>
      </trkpt>
      <trkpt lat="48.31601" lon="3.66749">
        <ele>237</ele>
        <time>2013-04-25T13:03:20Z</time>
      </trkpt>
      <trkpt lat="48.31627" lon="3.66754">
        <ele>233</ele>
        <time>2013-04-25T13:03:26Z</time>
      </trkpt>
      <trkpt lat="48.31654" lon="3.66757">
        <ele>228</ele>
        <time>2013-04-25T13:03:31Z</time>
      </trkpt>
      <trkpt lat="48.31677" lon="3.66756">
        <ele>224</ele>
        <time>2013-04-25T13:03:35Z</time>
      </trkpt>
      <trkpt lat="48.317" lon="3.66755">
        <ele>220</ele>
        <time>2013-04-25T13:03:39Z</time>
      </trkpt>
      <trkpt lat="48.31724" lon="3.66752">
        <ele>215</ele>
        <time>2013-04-25T13:03:43Z</time>
      </trkpt>
      <trkpt lat="48.31753" lon="3.66748">
        <ele>210</ele>
        <time>2013-04-25T13:03:47Z</time>
      </trkpt>
      <trkpt lat="48.31781" lon="3.66744">
        <ele>207</ele>
        <time>2013-04-25T13:03:51Z</time>
      </trkpt>
      <trkpt lat="48.31809" lon="3.66741">
        <ele>206</ele>
        <time>2013-04-25T13:03:55Z</time>
      </trkpt>
      <trkpt lat="48.31836" lon="3.66742">
        <ele>205</ele>
        <time>2013-04-25T13:03:59Z</time>
      </trkpt>
      <trkpt lat="48.31864" lon="3.66746">
        <ele>204</ele>
        <time>2013-04-25T13:04:03Z</time>
      </trkpt>
      <trkpt lat="48.31888" lon="3.66753">
        <ele>203</ele>
        <time>2013-04-25T13:04:07Z</time>
      </trkpt>
      <trkpt lat="48.31915" lon="3.66761">
        <ele>200</ele>
        <time>2013-04-25T13:04:11Z</time>
      </trkpt>
      <trkpt lat="48.31943" lon="3.66768">
        <ele>196</ele>
        <time>2013-04-25T13:04:15Z</time>
      </trkpt>
      <trkpt lat="48.31966" lon="3.66775">
        <ele>193</ele>
        <time>2013-04-25T13:04:18Z</time>
      </trkpt>
      <trkpt lat="48.31989" lon="3.66785">
        <ele>191</ele>
        <time>2013-04-25T13:04:21Z</time>
      </trkpt>
      <trkpt lat="48.32012" lon="3.66795">
        <ele>192</ele>
        <time>2013-04-25T13:04:24Z</time>
      </trkpt>
      <trkpt lat="48.3204" lon="3.66808">
        <ele>189</ele>
        <time>2013-04-25T13:04:28Z</time>
      </trkpt>
      <trkpt lat="48.32064" lon="3.66819">
        <ele>188</ele>
        <time>2013-04-25T13:04:31Z</time>
      </trkpt>
      <trkpt lat="48.32088" lon="3.66828">
        <ele>185</ele>
        <time>2013-04-25T13:04:34Z</time>
      </trkpt>
      <trkpt lat="48.32112" lon="3.6684">
        <ele>183</ele>
        <time>2013-04-25T13:04:37Z</time>
      </trkpt>
      <trkpt lat="48.32135" lon="3.66851">
        <ele>183</ele>
        <time>2013-04-25T13:04:40Z</time>
      </trkpt>
      <trkpt lat="48.32161" lon="3.66862">
        <ele>180</ele>
        <time>2013-04-25T13:04:43Z</time>
      </trkpt>
      <trkpt lat="48.32196" lon="3.66877">
        <ele>180</ele>
        <time>2013-04-25T13:04:47Z</time>
      </trkpt>
      <trkpt lat="48.32225" lon="3.66884">
        <ele>179</ele>
        <time>2013-04-25T13:04:50Z</time>
      </trkpt>
      <trkpt lat="48.32251" lon="3.66893">
        <ele>182</ele>
        <time>2013-04-25T13:04:53Z</time>
      </trkpt>
      <trkpt lat="48.32276" lon="3.66908">
        <ele>179</ele>
        <time>2013-04-25T13:04:56Z</time>
      </trkpt>
      <trkpt lat="48.32302" lon="3.66925">
        <ele>176</ele>
        <time>2013-04-25T13:04:59Z</time>
      </trkpt>
      <trkpt lat="48.32328" lon="3.66939">
        <ele>173</ele>
        <time>2013-04-25T13:05:02Z</time>
      </trkpt>
      <trkpt lat="48.3235" lon="3.66953">
        <ele>171</ele>
        <time>2013-04-25T13:05:05Z</time>
      </trkpt>
      <trkpt lat="48.32378" lon="3.66967">
        <ele>170</ele>
        <time>2013-04-25T13:05:09Z</time>
      </trkpt>
      <trkpt lat="48.32391" lon="3.66998">
        <ele>171</ele>
        <time>2013-04-25T13:05:19Z</time>
      </trkpt>
      <trkpt lat="48.32382" lon="3.67039">
        <ele>172</ele>
        <time>2013-04-25T13:05:24Z</time>
      </trkpt>
      <trkpt lat="48.32375" lon="3.67077">
        <ele>174</ele>
        <time>2013-04-25T13:05:28Z</time>
      </trkpt>
      <trkpt lat="48.32369" lon="3.67119">
        <ele>175</ele>
        <time>2013-04-25T13:05:32Z</time>
      </trkpt>
      <trkpt lat="48.32361" lon="3.67157">
        <ele>175</ele>
        <time>2013-04-25T13:05:36Z</time>
      </trkpt>
      <trkpt lat="48.32349" lon="3.67191">
        <ele>177</ele>
        <time>2013-04-25T13:05:40Z</time>
      </trkpt>
      <trkpt lat="48.32337" lon="3.6722">
        <ele>180</ele>
        <time>2013-04-25T13:05:44Z</time>
      </trkpt>
      <trkpt lat="48.32325" lon="3.67259">
        <ele>179</ele>
        <time>2013-04-25T13:05:49Z</time>
      </trkpt>
      <trkpt lat="48.32315" lon="3.67292">
        <ele>178</ele>
        <time>2013-04-25T13:05:53Z</time>
      </trkpt>
      <trkpt lat="48.32305" lon="3.67324">
        <ele>175</ele>
        <time>2013-04-25T13:05:57Z</time>
      </trkpt>
      <trkpt lat="48.32293" lon="3.6736">
        <ele>173</ele>
        <time>2013-04-25T13:06:01Z</time>
      </trkpt>
      <trkpt lat="48.32278" lon="3.67393">
        <ele>175</ele>
        <time>2013-04-25T13:06:05Z</time>
      </trkpt>
      <trkpt lat="48.32265" lon="3.67432">
        <ele>179</ele>
        <time>2013-04-25T13:06:09Z</time>
      </trkpt>
      <trkpt lat="48.32252" lon="3.67468">
        <ele>178</ele>
        <time>2013-04-25T13:06:13Z</time>
      </trkpt>
      <trkpt lat="48.32237" lon="3.67501">
        <ele>180</ele>
        <time>2013-04-25T13:06:17Z</time>
      </trkpt>
      <trkpt lat="48.32224" lon="3.67536">
        <ele>184</ele>
        <time>2013-04-25T13:06:21Z</time>
      </trkpt>
      <trkpt lat="48.32213" lon="3.67568">
        <ele>187</ele>
        <time>2013-04-25T13:06:25Z</time>
      </trkpt>
      <trkpt lat="48.32199" lon="3.67603">
        <ele>188</ele>
        <time>2013-04-25T13:06:30Z</time>
      </trkpt>
      <trkpt lat="48.32183" lon="3.67635">
        <ele>187</ele>
        <time>2013-04-25T13:06:35Z</time>
      </trkpt>
      <trkpt lat="48.32172" lon="3.67668">
        <ele>190</ele>
        <time>2013-04-25T13:06:39Z</time>
      </trkpt>
      <trkpt lat="48.3216" lon="3.67703">
        <ele>191</ele>
        <time>2013-04-25T13:06:43Z</time>
      </trkpt>
      <trkpt lat="48.32144" lon="3.67733">
        <ele>188</ele>
        <time>2013-04-25T13:06:48Z</time>
      </trkpt>
      <trkpt lat="48.32133" lon="3.67764">
        <ele>187</ele>
        <time>2013-04-25T13:06:52Z</time>
      </trkpt>
      <trkpt lat="48.32122" lon="3.67797">
        <ele>187</ele>
        <time>2013-04-25T13:06:56Z</time>
      </trkpt>
      <trkpt lat="48.3211" lon="3.67829">
        <ele>189</ele>
        <time>2013-04-25T13:07:00Z</time>
      </trkpt>
      <trkpt lat="48.32098" lon="3.67864">
        <ele>189</ele>
        <time>2013-04-25T13:07:04Z</time>
      </trkpt>
      <trkpt lat="48.32088" lon="3.67899">
        <ele>191</ele>
        <time>2013-04-25T13:07:10Z</time>
      </trkpt>
      <trkpt lat="48.32073" lon="3.67934">
        <ele>196</ele>
        <time>2013-04-25T13:07:15Z</time>
      </trkpt>
      <trkpt lat="48.32059" lon="3.67966">
        <ele>196</ele>
        <time>2013-04-25T13:07:19Z</time>
      </trkpt>
      <trkpt lat="48.32045" lon="3.68003">
        <ele>195</ele>
        <time>2013-04-25T13:07:23Z</time>
      </trkpt>
      <trkpt lat="48.32035" lon="3.68038">
        <ele>193</ele>
        <time>2013-04-25T13:07:26Z</time>
      </trkpt>
      <trkpt lat="48.32025" lon="3.68074">
        <ele>192</ele>
        <time>2013-04-25T13:07:29Z</time>
      </trkpt>
      <trkpt lat="48.32015" lon="3.68106">
        <ele>191</ele>
        <time>2013-04-25T13:07:32Z</time>
      </trkpt>
      <trkpt lat="48.32001" lon="3.68143">
        <ele>188</ele>
        <time>2013-04-25T13:07:37Z</time>
      </trkpt>
      <trkpt lat="48.32015" lon="3.68181">
        <ele>191</ele>
        <time>2013-04-25T13:07:44Z</time>
      </trkpt>
      <trkpt lat="48.32034" lon="3.68207">
        <ele>192</ele>
        <time>2013-04-25T13:07:47Z</time>
      </trkpt>
      <trkpt lat="48.32054" lon="3.6824">
        <ele>189</ele>
        <time>2013-04-25T13:07:50Z</time>
      </trkpt>
      <trkpt lat="48.32074" lon="3.68264">
        <ele>191</ele>
        <time>2013-04-25T13:07:53Z</time>
      </trkpt>
      <trkpt lat="48.32096" lon="3.68284">
        <ele>191</ele>
        <time>2013-04-25T13:07:57Z</time>
      </trkpt>
      <trkpt lat="48.32125" lon="3.68309">
        <ele>190</ele>
        <time>2013-04-25T13:08:01Z</time>
      </trkpt>
      <trkpt lat="48.32155" lon="3.68324">
        <ele>187</ele>
        <time>2013-04-25T13:08:04Z</time>
      </trkpt>
      <trkpt lat="48.32179" lon="3.68331">
        <ele>186</ele>
        <time>2013-04-25T13:08:06Z</time>
      </trkpt>
      <trkpt lat="48.32202" lon="3.68336">
        <ele>185</ele>
        <time>2013-04-25T13:08:08Z</time>
      </trkpt>
      <trkpt lat="48.32236" lon="3.68341">
        <ele>185</ele>
        <time>2013-04-25T13:08:11Z</time>
      </trkpt>
      <trkpt lat="48.32259" lon="3.68345">
        <ele>184</ele>
        <time>2013-04-25T13:08:13Z</time>
      </trkpt>
      <trkpt lat="48.32291" lon="3.68357">
        <ele>182</ele>
        <time>2013-04-25T13:08:16Z</time>
      </trkpt>
      <trkpt lat="48.32321" lon="3.68375">
        <ele>180</ele>
        <time>2013-04-25T13:08:19Z</time>
      </trkpt>
      <trkpt lat="48.3234" lon="3.68397">
        <ele>178</ele>
        <time>2013-04-25T13:08:23Z</time>
      </trkpt>
      <trkpt lat="48.32323" lon="3.68421">
        <ele>177</ele>
        <time>2013-04-25T13:08:28Z</time>
      </trkpt>
      <trkpt lat="48.32305" lon="3.68444">
        <ele>175</ele>
        <time>2013-04-25T13:08:32Z</time>
      </trkpt>
      <trkpt lat="48.32286" lon="3.68469">
        <ele>175</ele>
        <time>2013-04-25T13:08:36Z</time>
      </trkpt>
      <trkpt lat="48.32265" lon="3.68495">
        <ele>174</ele>
        <time>2013-04-25T13:08:40Z</time>
      </trkpt>
      <trkpt lat="48.32247" lon="3.6852">
        <ele>174</ele>
        <time>2013-04-25T13:08:44Z</time>
      </trkpt>
      <trkpt lat="48.32225" lon="3.68546">
        <ele>174</ele>
        <time>2013-04-25T13:08:49Z</time>
      </trkpt>
      <trkpt lat="48.32207" lon="3.6857">
        <ele>173</ele>
        <time>2013-04-25T13:08:53Z</time>
      </trkpt>
      <trkpt lat="48.32187" lon="3.68594">
        <ele>173</ele>
        <time>2013-04-25T13:08:57Z</time>
      </trkpt>
      <trkpt lat="48.32169" lon="3.68615">
        <ele>174</ele>
        <time>2013-04-25T13:09:01Z</time>
      </trkpt>
      <trkpt lat="48.3215" lon="3.68638">
        <ele>175</ele>
        <time>2013-04-25T13:09:05Z</time>
      </trkpt>
      <trkpt lat="48.32131" lon="3.68663">
        <ele>176</ele>
        <time>2013-04-25T13:09:09Z</time>
      </trkpt>
      <trkpt lat="48.32112" lon="3.6869">
        <ele>178</ele>
        <time>2013-04-25T13:09:13Z</time>
      </trkpt>
      <trkpt lat="48.32096" lon="3.68714">
        <ele>180</ele>
        <time>2013-04-25T13:09:17Z</time>
      </trkpt>
      <trkpt lat="48.32078" lon="3.68735">
        <ele>182</ele>
        <time>2013-04-25T13:09:21Z</time>
      </trkpt>
      <trkpt lat="48.3206" lon="3.68757">
        <ele>184</ele>
        <time>2013-04-25T13:09:25Z</time>
      </trkpt>
      <trkpt lat="48.32042" lon="3.6878">
        <ele>187</ele>
        <time>2013-04-25T13:09:29Z</time>
      </trkpt>
      <trkpt lat="48.32023" lon="3.68804">
        <ele>189</ele>
        <time>2013-04-25T13:09:33Z</time>
      </trkpt>
      <trkpt lat="48.32002" lon="3.68827">
        <ele>192</ele>
        <time>2013-04-25T13:09:37Z</time>
      </trkpt>
      <trkpt lat="48.31985" lon="3.68854">
        <ele>196</ele>
        <time>2013-04-25T13:09:41Z</time>
      </trkpt>
      <trkpt lat="48.31968" lon="3.68879">
        <ele>198</ele>
        <time>2013-04-25T13:09:45Z</time>
      </trkpt>
      <trkpt lat="48.31949" lon="3.68899">
        <ele>200</ele>
        <time>2013-04-25T13:09:50Z</time>
      </trkpt>
      <trkpt lat="48.31961" lon="3.68934">
        <ele>202</ele>
        <time>2013-04-25T13:09:58Z</time>
      </trkpt>
      <trkpt lat="48.31973" lon="3.68964">
        <ele>203</ele>
        <time>2013-04-25T13:10:02Z</time>
      </trkpt>
      <trkpt lat="48.31987" lon="3.68991">
        <ele>203</ele>
        <time>2013-04-25T13:10:06Z</time>
      </trkpt>
      <trkpt lat="48.31998" lon="3.69023">
        <ele>203</ele>
        <time>2013-04-25T13:10:10Z</time>
      </trkpt>
      <trkpt lat="48.32011" lon="3.69055">
        <ele>205</ele>
        <time>2013-04-25T13:10:14Z</time>
      </trkpt>
      <trkpt lat="48.32026" lon="3.69089">
        <ele>207</ele>
        <time>2013-04-25T13:10:18Z</time>
      </trkpt>
      <trkpt lat="48.32038" lon="3.69127">
        <ele>209</ele>
        <time>2013-04-25T13:10:22Z</time>
      </trkpt>
      <trkpt lat="48.3205" lon="3.69165">
        <ele>215</ele>
        <time>2013-04-25T13:10:26Z</time>
      </trkpt>
      <trkpt lat="48.32067" lon="3.69191">
        <ele>210</ele>
        <time>2013-04-25T13:10:30Z</time>
      </trkpt>
      <trkpt lat="48.32079" lon="3.69224">
        <ele>212</ele>
        <time>2013-04-25T13:10:34Z</time>
      </trkpt>
      <trkpt lat="48.32093" lon="3.69259">
        <ele>212</ele>
        <time>2013-04-25T13:10:39Z</time>
      </trkpt>
      <trkpt lat="48.32104" lon="3.69289">
        <ele>211</ele>
        <time>2013-04-25T13:10:43Z</time>
      </trkpt>
      <trkpt lat="48.3212" lon="3.69324">
        <ele>211</ele>
        <time>2013-04-25T13:10:48Z</time>
      </trkpt>
      <trkpt lat="48.32138" lon="3.69366">
        <ele>209</ele>
        <time>2013-04-25T13:10:54Z</time>
      </trkpt>
      <trkpt lat="48.32153" lon="3.69401">
        <ele>208</ele>
        <time>2013-04-25T13:10:59Z</time>
      </trkpt>
      <trkpt lat="48.32166" lon="3.69432">
        <ele>206</ele>
        <time>2013-04-25T13:11:04Z</time>
      </trkpt>
    </trkseg>
  </trk>
</gpx>